Time;durP1;ratioP1;P1;durP2;ratioP2;P2;SDS_P1;SDS_P2;PMS_P1;PMS_P2;Temp;Humidity;BMP_temperature;BMP_pressure;BME280_temperature;BME280_humidity;BME280_pressure;Samples;Min_cycle;Max_cycle;Signal;HPM_P1;HPM_P2
2023/04/17 00:02:19;;;;;;;0.67;0.67;;;8.80;99.90;10.50;96786.00;;;;5105082;28;20652;-69
2023/04/17 00:05:09;;;;;;;0.83;0.73;;;8.90;99.90;10.40;96788.00;;;;5105099;28;20201;-68
2023/04/17 00:07:58;;;;;;;0.80;0.80;;;8.90;99.90;10.30;96785.00;;;;5102981;28;20190;-68
2023/04/17 00:10:47;;;;;;;1.20;1.10;;;8.80;99.90;10.50;96772.00;;;;5107019;28;20665;-69
2023/04/17 00:13:42;;;;;;;1.23;1.00;;;8.80;99.90;10.40;96766.00;;;;5108817;28;20225;-69
2023/04/17 00:16:32;;;;;;;0.90;0.90;;;8.80;99.90;10.50;96774.00;;;;5102571;28;20195;-68
2023/04/17 00:19:21;;;;;;;1.47;1.37;;;8.80;99.90;10.40;96772.00;;;;5105419;28;20199;-68
2023/04/17 00:22:10;;;;;;;2.80;1.20;;;8.70;99.90;10.20;96772.00;;;;5103868;28;20705;-69
2023/04/17 00:24:59;;;;;;;1.37;0.83;;;8.80;99.90;10.30;96773.00;;;;5105835;28;20277;-69
2023/04/17 00:27:47;;;;;;;1.20;1.10;;;8.60;99.90;10.30;96765.00;;;;5098847;28;20215;-69
2023/04/17 00:30:36;;;;;;;0.77;0.77;;;8.50;99.90;10.20;96772.00;;;;5103976;28;20232;-69
2023/04/17 00:33:26;;;;;;;1.20;1.10;;;8.60;99.90;10.30;96769.00;;;;5105774;28;20268;-69
2023/04/17 00:36:15;;;;;;;1.07;1.00;;;8.50;99.90;10.30;96768.00;;;;5103873;28;20273;-68
2023/04/17 00:39:03;;;;;;;1.00;1.00;;;8.40;99.90;10.30;96773.00;;;;5100977;28;20199;-69
2023/04/17 00:41:52;;;;;;;1.17;1.07;;;8.60;99.90;10.30;96774.00;;;;5103748;28;20215;-69
2023/04/17 00:44:41;;;;;;;0.90;0.90;;;8.60;99.90;10.20;96767.00;;;;5105655;28;20199;-69
2023/04/17 00:47:30;;;;;;;1.40;1.30;;;8.40;99.90;10.20;96767.00;;;;5106862;28;20202;-69
2023/04/17 00:50:20;;;;;;;1.10;1.10;;;8.60;99.90;10.20;96768.00;;;;5100644;28;20195;-69
2023/04/17 00:53:09;;;;;;;1.23;1.00;;;8.40;99.90;10.20;96761.00;;;;5107014;28;20230;-69
2023/04/17 00:55:59;;;;;;;1.27;1.10;;;8.40;99.90;10.30;96758.00;;;;5104370;28;20195;-69
2023/04/17 00:58:49;;;;;;;1.33;1.23;;;8.50;99.90;10.10;96750.00;;;;5104121;28;20846;-68
2023/04/17 01:01:38;;;;;;;0.70;0.70;;;8.40;99.90;10.20;96748.00;;;;5101549;28;20844;-68
2023/04/17 01:04:27;;;;;;;1.50;1.33;;;8.60;99.90;10.20;96747.00;;;;5107802;28;20202;-68
2023/04/17 01:07:17;;;;;;;1.10;1.10;;;8.60;99.90;10.30;96755.00;;;;5110206;28;20205;-69
2023/04/17 01:10:07;;;;;;;1.30;1.17;;;8.50;99.90;10.40;96746.00;;;;5104344;28;20223;-69
2023/04/17 01:13:03;;;;;;;0.90;0.83;;;8.60;99.90;10.40;96747.00;;;;5103209;28;20258;-69
2023/04/17 01:15:51;;;;;;;1.67;1.10;;;8.60;99.90;10.40;96742.00;;;;5110997;28;20199;-69
2023/04/17 01:18:40;;;;;;;1.67;1.33;;;8.60;99.90;10.30;96754.00;;;;5107224;28;20248;-69
2023/04/17 01:21:30;;;;;;;1.30;1.07;;;8.50;99.90;10.30;96736.00;;;;5109840;28;20218;-69
2023/04/17 01:24:20;;;;;;;1.27;1.03;;;8.60;99.90;10.30;96742.00;;;;5107033;28;20220;-69
2023/04/17 01:27:08;;;;;;;1.17;1.03;;;8.70;99.90;10.30;96753.00;;;;5101980;28;20203;-70
2023/04/17 01:29:57;;;;;;;1.17;0.97;;;8.50;99.90;10.30;96739.00;;;;5102172;28;20621;-70
2023/04/17 01:32:46;;;;;;;1.13;1.03;;;8.50;99.90;10.40;96745.00;;;;5109442;28;20627;-69
2023/04/17 01:35:35;;;;;;;1.60;1.30;;;8.80;99.90;10.30;96751.00;;;;5106511;28;20195;-69
2023/04/17 01:38:23;;;;;;;1.83;0.87;;;8.50;99.90;10.40;96743.00;;;;5107251;28;20259;-70
2023/04/17 01:41:13;;;;;;;0.87;0.87;;;8.60;99.90;10.30;96743.00;;;;5104482;28;20231;-70
2023/04/17 01:44:02;;;;;;;1.37;1.27;;;8.70;99.90;10.20;96723.00;;;;5109404;27;20194;-69
2023/04/17 01:46:51;;;;;;;1.70;1.07;;;8.60;99.90;10.50;96735.00;;;;5108555;28;20195;-69
2023/04/17 01:49:39;;;;;;;1.60;1.10;;;8.60;99.90;10.50;96730.00;;;;5107066;28;20201;-69
2023/04/17 01:52:28;;;;;;;0.73;0.73;;;8.70;99.90;10.40;96722.00;;;;5110367;27;21112;-69
2023/04/17 01:55:17;;;;;;;1.23;0.90;;;8.80;99.90;10.40;96727.00;;;;5108578;28;20277;-71
2023/04/17 01:58:07;;;;;;;1.17;1.07;;;8.70;99.90;10.50;96725.00;;;;5103914;28;20230;-71
2023/04/17 02:00:56;;;;;;;1.20;1.10;;;8.70;99.90;10.40;96719.00;;;;5100471;28;20284;-71
2023/04/17 02:03:44;;;;;;;1.37;1.00;;;8.80;99.90;10.50;96705.00;;;;5106461;28;20207;-71
2023/04/17 02:06:33;;;;;;;1.97;1.87;;;8.80;99.90;10.40;96710.00;;;;5109034;28;20291;-71
2023/04/17 02:09:22;;;;;;;3.50;3.23;;;8.80;99.90;10.50;96715.00;;;;5104371;28;20202;-71
2023/04/17 02:12:11;;;;;;;2.00;1.90;;;8.70;99.90;10.40;96717.00;;;;5104012;28;20222;-71
2023/04/17 02:15:01;;;;;;;2.40;1.77;;;8.90;99.90;10.40;96724.00;;;;5105139;28;20281;-71
2023/04/17 02:17:49;;;;;;;1.57;1.47;;;8.80;99.90;10.40;96727.00;;;;5105058;28;20252;-71
2023/04/17 02:20:38;;;;;;;1.17;1.17;;;8.80;99.90;10.40;96732.00;;;;5108451;28;20809;-71
2023/04/17 02:23:27;;;;;;;1.00;0.93;;;8.50;99.90;10.40;96717.00;;;;5107571;28;20213;-71
2023/04/17 02:26:16;;;;;;;1.23;1.13;;;8.70;99.90;10.30;96725.00;;;;5107542;28;20260;-70
2023/04/17 02:29:04;;;;;;;2.03;1.40;;;8.60;99.90;10.40;96720.00;;;;5104102;28;20206;-71
2023/04/17 02:31:54;;;;;;;1.40;1.30;;;8.50;99.90;10.30;96716.00;;;;5108894;27;20230;-70
2023/04/17 02:34:44;;;;;;;1.57;1.30;;;8.70;99.90;10.40;96717.00;;;;5106343;28;20218;-71
2023/04/17 02:37:32;;;;;;;1.47;1.30;;;8.60;99.90;10.40;96715.00;;;;5105354;28;20198;-70
2023/04/17 02:40:21;;;;;;;0.97;0.93;;;8.60;99.90;10.40;96725.00;;;;5102830;28;20287;-71
2023/04/17 02:43:12;;;;;;;1.20;0.90;;;8.60;99.90;10.30;96722.00;;;;5107073;28;20209;-70
2023/04/17 02:46:01;;;;;;;1.23;1.13;;;9.10;99.90;10.30;96723.00;;;;5106481;28;20191;-70
2023/04/17 02:48:51;;;;;;;3.30;0.90;;;8.70;99.90;10.20;96719.00;;;;5101545;28;20199;-71
2023/04/17 02:51:39;;;;;;;5.63;1.17;;;8.50;99.90;10.20;96716.00;;;;5105695;28;20257;-71
2023/04/17 02:54:28;;;;;;;1.00;0.90;;;8.50;99.90;10.20;96714.00;;;;5106949;28;20226;-68
2023/04/17 02:57:17;;;;;;;1.30;0.80;;;8.30;99.90;10.20;96700.00;;;;5104527;28;20320;-67
2023/04/17 03:00:09;;;;;;;0.90;0.87;;;8.60;99.90;10.20;96705.00;;;;5104460;28;20270;-67
2023/04/17 03:02:58;;;;;;;0.50;0.50;;;8.60;99.90;10.30;96705.00;;;;5105561;28;20271;-67
2023/04/17 03:05:48;;;;;;;0.90;0.77;;;8.60;99.90;10.30;96705.00;;;;5106712;28;20635;-67
2023/04/17 03:08:37;;;;;;;1.57;1.47;;;8.50;99.90;10.40;96705.00;;;;5105710;28;20206;-68
2023/04/17 03:11:26;;;;;;;1.10;1.00;;;8.50;99.90;10.30;96702.00;;;;5109635;28;20602;-68
2023/04/17 03:14:15;;;;;;;1.00;1.00;;;8.50;99.90;10.30;96701.00;;;;5106578;28;20350;-68
2023/04/17 03:17:03;;;;;;;1.00;1.00;;;8.50;99.90;10.40;96710.00;;;;5102327;28;20359;-69
2023/04/17 03:19:52;;;;;;;1.00;1.00;;;8.50;99.90;10.30;96710.00;;;;5103913;28;20198;-70
2023/04/17 03:22:42;;;;;;;2.73;0.97;;;8.50;99.90;10.40;96712.00;;;;5100795;28;20240;-70
2023/04/17 03:25:31;;;;;;;1.73;1.20;;;8.70;99.90;10.40;96704.00;;;;5105372;28;20579;-70
2023/04/17 03:28:20;;;;;;;4.90;0.80;;;8.80;99.90;10.40;96702.00;;;;5102951;28;20203;-70
2023/04/17 03:31:09;;;;;;;0.90;0.90;;;8.70;99.90;10.30;96703.00;;;;5102809;28;20226;-69
2023/04/17 03:33:58;;;;;;;1.13;0.97;;;8.80;99.90;10.30;96711.00;;;;5103245;28;20246;-70
2023/04/17 03:36:46;;;;;;;1.20;0.80;;;8.60;99.90;10.20;96711.00;;;;5106909;28;20224;-70
2023/04/17 03:39:36;;;;;;;3.93;1.90;;;8.40;99.90;10.20;96705.00;;;;5103978;28;20198;-70
2023/04/17 03:42:26;;;;;;;2.50;1.50;;;8.50;99.90;10.10;96711.00;;;;5106545;28;20274;-69
2023/04/17 03:45:15;;;;;;;0.90;0.77;;;8.50;99.90;10.10;96712.00;;;;5105147;28;20260;-70
2023/04/17 03:48:04;;;;;;;5.73;3.77;;;8.40;99.90;10.10;96711.00;;;;5103132;28;20202;-70
2023/04/17 03:50:53;;;;;;;1.83;1.70;;;8.40;99.90;10.10;96713.00;;;;5101839;28;20214;-70
2023/04/17 03:53:42;;;;;;;0.93;0.93;;;8.40;99.90;10.20;96710.00;;;;5106901;28;20247;-69
2023/04/17 03:56:32;;;;;;;1.03;0.93;;;8.60;99.90;10.30;96716.00;;;;5102136;28;20248;-69
2023/04/17 03:59:20;;;;;;;1.83;1.07;;;8.60;99.90;10.30;96716.00;;;;5103820;28;20210;-69
2023/04/17 04:02:09;;;;;;;0.73;0.73;;;8.40;99.90;10.20;96715.00;;;;5098327;28;20658;-69
2023/04/17 04:04:58;;;;;;;0.93;0.90;;;8.40;99.90;10.30;96713.00;;;;5112378;28;20669;-69
2023/04/17 04:07:46;;;;;;;0.87;0.87;;;8.60;99.90;10.20;96710.00;;;;5105209;28;20198;-69
2023/04/17 04:10:35;;;;;;;2.33;0.70;;;8.60;99.90;10.30;96717.00;;;;5110760;28;20189;-69
2023/04/17 04:13:25;;;;;;;0.77;0.77;;;8.40;99.90;10.30;96723.00;;;;5106076;28;20213;-68
2023/04/17 04:16:14;;;;;;;0.70;0.70;;;8.50;99.90;10.30;96722.00;;;;5105006;28;20194;-68
2023/04/17 04:19:03;;;;;;;1.03;0.90;;;8.50;99.90;10.20;96721.00;;;;5103698;28;20263;-69
2023/04/17 04:21:52;;;;;;;0.70;0.70;;;8.90;99.90;10.40;96723.00;;;;5105529;28;20750;-69
2023/04/17 04:24:41;;;;;;;1.20;1.00;;;8.40;99.90;10.30;96727.00;;;;5103372;28;20642;-69
2023/04/17 04:27:31;;;;;;;1.00;1.00;;;8.60;99.90;10.30;96728.00;;;;5107253;28;20206;-70
2023/04/17 04:30:24;;;;;;;0.83;0.83;;;8.60;99.90;10.10;96733.00;;;;5100903;28;20207;-67
2023/04/17 04:33:13;;;;;;;0.77;0.70;;;8.80;99.90;10.40;96729.00;;;;5104370;28;20666;-70
2023/04/17 04:36:02;;;;;;;1.90;0.67;;;8.60;99.90;10.50;96727.00;;;;5105827;28;20720;-67
2023/04/17 04:38:51;;;;;;;0.70;0.70;;;8.60;99.90;10.60;96747.00;;;;5111060;27;20228;-68
2023/04/17 04:41:45;;;;;;;0.77;0.63;;;9.10;99.90;10.70;96741.00;;;;5106595;27;20274;-74
2023/04/17 04:44:33;;;;;;;0.97;0.90;;;8.80;99.90;10.80;96745.00;;;;5104992;27;20191;-74
2023/04/17 04:47:24;;;;;;;0.50;0.47;;;9.00;99.90;10.70;96750.00;;;;5104162;27;20206;-71
2023/04/17 04:50:13;;;;;;;0.77;0.60;;;9.70;99.90;10.60;96751.00;;;;5101018;28;20240;-72
2023/04/17 04:53:01;;;;;;;0.60;0.60;;;8.70;99.90;10.80;96756.00;;;;5110710;27;20226;-73
2023/04/17 04:55:50;;;;;;;0.60;0.60;;;8.90;99.90;10.40;96742.00;;;;5107493;28;20226;-72
2023/04/17 04:58:39;;;;;;;1.07;0.97;;;8.80;99.90;10.70;96752.00;;;;5106819;28;20560;-73
2023/04/17 05:01:28;;;;;;;0.83;0.83;;;9.10;99.90;10.90;96749.00;;;;5102718;28;20585;-74
2023/04/17 05:04:18;;;;;;;0.70;0.60;;;9.10;99.90;10.90;96748.00;;;;5100245;28;20278;-73
2023/04/17 05:07:07;;;;;;;2.20;0.63;;;9.10;99.90;11.00;96752.00;;;;5104178;27;20206;-73
2023/04/17 05:09:56;;;;;;;0.50;0.50;;;9.00;99.90;11.10;96755.00;;;;5110920;27;20194;-73
2023/04/17 05:12:44;;;;;;;1.03;0.80;;;9.10;99.90;11.00;96763.00;;;;5107176;27;20249;-73
2023/04/17 05:15:33;;;;;;;1.23;0.93;;;9.10;99.90;11.10;96769.00;;;;5108693;28;20227;-72
2023/04/17 05:18:22;;;;;;;1.37;0.80;;;9.20;99.90;11.10;96772.00;;;;5108896;28;20677;-73
2023/04/17 05:21:12;;;;;;;0.87;0.50;;;9.20;99.90;11.10;96782.00;;;;5102670;27;20334;-72
2023/04/17 05:24:01;;;;;;;0.53;0.53;;;9.50;99.90;11.10;96778.00;;;;5108619;28;20709;-73
2023/04/17 05:26:49;;;;;;;1.00;0.80;;;9.40;99.90;11.10;96776.00;;;;5110337;27;20259;-71
2023/04/17 05:29:38;;;;;;;1.10;1.00;;;9.10;99.90;11.10;96772.00;;;;5108134;27;20199;-73
2023/04/17 05:32:29;;;;;;;1.00;0.90;;;9.20;99.90;11.20;96781.00;;;;5105624;27;20268;-73
2023/04/17 05:35:18;;;;;;;0.80;0.80;;;9.40;99.90;11.10;96773.00;;;;5109449;27;20226;-72
2023/04/17 05:38:08;;;;;;;1.93;0.80;;;9.10;99.90;11.30;96779.00;;;;5106544;27;20205;-73
2023/04/17 05:40:56;;;;;;;0.73;0.73;;;9.40;99.90;11.30;96784.00;;;;5106301;28;20209;-74
2023/04/17 05:43:45;;;;;;;1.57;0.80;;;9.60;99.90;11.30;96786.00;;;;5108914;27;20203;-73
2023/04/17 05:46:34;;;;;;;1.13;0.80;;;9.50;99.90;11.10;96787.00;;;;5107811;28;20194;-72
2023/04/17 05:49:23;;;;;;;0.60;0.60;;;9.20;99.90;11.20;96783.00;;;;5106430;28;20286;-72
2023/04/17 05:52:12;;;;;;;4.23;2.40;;;9.30;99.90;11.40;96786.00;;;;5109635;27;20224;-73
2023/04/17 05:55:02;;;;;;;0.60;0.60;;;9.40;99.90;11.30;96782.00;;;;5099336;28;20312;-72
2023/04/17 05:57:51;;;;;;;1.23;0.53;;;9.40;99.90;11.30;96790.00;;;;5098088;28;20198;-68
2023/04/17 06:00:41;;;;;;;1.63;0.90;;;9.70;99.90;11.00;96786.00;;;;5084340;28;20207;-73
2023/04/17 06:03:30;;;;;;;0.53;0.53;;;9.40;99.90;11.40;96791.00;;;;5089106;28;20611;-69
2023/04/17 06:06:19;;;;;;;0.60;0.60;;;9.90;99.90;11.50;96793.00;;;;5091676;28;20229;-71
2023/04/17 06:09:09;;;;;;;0.93;0.93;;;9.60;99.90;11.50;96787.00;;;;5080828;28;20200;-71
2023/04/17 06:11:59;;;;;;;0.50;0.50;;;9.60;99.90;11.70;96785.00;;;;5083177;28;20230;-72
2023/04/17 06:14:48;;;;;;;1.03;0.93;;;9.70;99.90;11.90;96775.00;;;;5084554;28;20223;-72
2023/04/17 06:17:37;;;;;;;1.00;1.00;;;9.70;99.90;11.90;96776.00;;;;5082859;28;20218;-72
2023/04/17 06:20:26;;;;;;;0.73;0.73;;;10.00;99.90;11.70;96774.00;;;;5085798;28;20207;-73
2023/04/17 06:23:15;;;;;;;1.23;1.00;;;9.70;99.90;11.80;96774.00;;;;5084632;28;20226;-68
2023/04/17 06:26:04;;;;;;;7.17;4.07;;;10.00;99.90;12.20;96785.00;;;;5085684;28;20260;-69
2023/04/17 06:28:54;;;;;;;11.10;6.13;;;10.20;99.90;12.20;96781.00;;;;5086136;28;20203;-72
2023/04/17 06:31:43;;;;;;;10.17;4.00;;;10.20;99.90;12.40;96784.00;;;;5085390;28;20223;-72
2023/04/17 06:34:32;;;;;;;13.73;7.10;;;10.40;99.90;12.20;96781.00;;;;5086744;28;20320;-68
2023/04/17 06:37:20;;;;;;;4.50;3.27;;;10.40;99.90;12.40;96776.00;;;;5081748;28;20313;-69
2023/04/17 06:40:12;;;;;;;4.53;1.90;;;10.30;99.90;12.60;96785.00;;;;5083478;28;20830;-72
2023/04/17 06:43:00;;;;;;;5.40;3.53;;;10.70;99.90;12.40;96790.00;;;;5083489;28;20276;-73
2023/04/17 06:45:51;;;;;;;6.07;4.13;;;10.40;99.90;12.70;96783.00;;;;5085351;28;20207;-69
2023/04/17 06:48:39;;;;;;;2.03;1.73;;;10.80;99.90;12.60;96790.00;;;;5081596;28;20196;-72
2023/04/17 06:51:28;;;;;;;9.97;6.00;;;10.80;99.90;12.70;96783.00;;;;5086628;28;20311;-70
2023/04/17 06:54:17;;;;;;;2.97;2.30;;;10.90;99.90;12.90;96786.00;;;;5086288;28;20199;-71
2023/04/17 06:57:09;;;;;;;6.50;2.13;;;10.70;99.90;13.20;96782.00;;;;5085999;28;20227;-70
2023/04/17 06:59:58;;;;;;;1.37;1.13;;;11.00;99.90;13.20;96784.00;;;;5101050;28;20202;-73
2023/04/17 07:02:48;;;;;;;1.20;1.03;;;11.10;99.90;13.10;96782.00;;;;5106987;28;20260;-68
2023/04/17 07:05:37;;;;;;;1.83;1.67;;;11.20;99.90;13.20;96782.00;;;;5105122;28;20199;-68
2023/04/17 07:08:25;;;;;;;2.70;2.47;;;11.30;99.90;13.60;96780.00;;;;5106873;28;20218;-68
2023/04/17 07:11:14;;;;;;;2.20;1.70;;;11.40;99.90;13.00;96787.00;;;;5105493;28;20267;-69
2023/04/17 07:14:03;;;;;;;7.13;4.13;;;11.50;99.90;13.50;96798.00;;;;5103271;28;20236;-66
2023/04/17 07:16:51;;;;;;;1.40;1.30;;;11.60;99.90;13.30;96790.00;;;;5107993;28;20315;-68
2023/04/17 07:19:41;;;;;;;3.83;1.30;;;11.80;99.90;13.60;96779.00;;;;5108674;28;20205;-69
2023/04/17 07:22:30;;;;;;;1.30;1.10;;;11.60;99.90;13.70;96782.00;;;;5107340;28;20581;-68
2023/04/17 07:25:19;;;;;;;2.70;1.57;;;11.50;99.90;13.70;96782.00;;;;5107764;28;20213;-69
2023/04/17 07:28:09;;;;;;;1.53;1.13;;;11.70;99.90;14.10;96794.00;;;;5104942;28;20746;-69
2023/04/17 07:30:57;;;;;;;1.07;1.07;;;12.00;99.90;14.00;96793.00;;;;5107535;28;20190;-68
2023/04/17 07:33:46;;;;;;;1.47;1.37;;;12.00;99.90;14.10;96803.00;;;;5106546;28;20217;-72
2023/04/17 07:36:36;;;;;;;1.53;0.90;;;12.20;99.90;13.80;96781.00;;;;5105230;28;20333;-74
2023/04/17 07:39:30;;;;;;;2.93;2.10;;;12.10;99.90;14.20;96795.00;;;;5106577;28;20315;-69
2023/04/17 07:42:19;;;;;;;1.30;1.20;;;12.10;99.90;14.20;96801.00;;;;5107348;28;20214;-69
2023/04/17 07:45:09;;;;;;;1.57;0.90;;;12.30;99.90;14.40;96796.00;;;;5104908;28;20291;-69
2023/04/17 07:47:58;;;;;;;2.20;1.37;;;12.40;99.90;14.50;96811.00;;;;5102782;28;20583;-68
2023/04/17 07:50:46;;;;;;;1.30;1.00;;;12.40;99.90;13.80;96796.00;;;;5104928;28;20202;-71
2023/04/17 07:53:37;;;;;;;1.50;1.17;;;12.50;99.90;14.20;96803.00;;;;5107712;28;20206;-67
2023/04/17 07:56:30;;;;;;;1.07;0.97;;;12.30;99.90;13.90;96802.00;;;;5107614;28;20227;-68
2023/04/17 07:59:20;;;;;;;1.67;1.10;;;12.40;99.90;14.00;96811.00;;;;5100312;28;20253;-73
2023/04/17 08:02:08;;;;;;;1.47;1.33;;;12.40;99.90;14.20;96814.00;;;;5077324;28;20230;-66
2023/04/17 08:04:59;;;;;;;0.77;0.77;;;12.50;99.90;14.70;96807.00;;;;5084071;28;20195;-67
2023/04/17 08:07:47;;;;;;;1.53;1.00;;;12.70;99.90;14.60;96815.00;;;;5087392;28;20195;-69
2023/04/17 08:10:37;;;;;;;2.03;1.07;;;12.70;99.90;14.70;96814.00;;;;5084104;28;20207;-68
2023/04/17 08:13:26;;;;;;;1.20;1.20;;;12.60;99.90;14.60;96808.00;;;;5090069;28;20207;-67
2023/04/17 08:16:15;;;;;;;1.40;1.30;;;12.70;99.90;15.00;96818.00;;;;5082342;28;20532;-70
2023/04/17 08:19:04;;;;;;;1.23;1.13;;;13.00;99.90;15.10;96813.00;;;;5089984;28;20213;-68
2023/04/17 08:22:02;;;;;;;1.83;1.30;;;12.90;99.90;14.70;96810.00;;;;5090849;28;20651;-66
2023/04/17 08:24:53;;;;;;;1.30;1.13;;;13.20;99.90;14.60;96812.00;;;;5088215;28;20210;-74
2023/04/17 08:27:43;;;;;;;2.07;1.87;;;12.30;99.90;14.80;96810.00;;;;5088750;28;20587;-69
2023/04/17 08:30:32;;;;;;;6.10;2.07;;;13.20;99.90;15.00;96824.00;;;;5083979;28;20203;-67
2023/04/17 08:33:21;;;;;;;1.77;1.53;;;13.00;99.90;14.90;96818.00;;;;5088286;28;20202;-68
2023/04/17 08:36:10;;;;;;;1.90;1.30;;;12.90;99.90;14.60;96827.00;;;;5090935;28;20255;-68
2023/04/17 08:38:58;;;;;;;1.17;1.00;;;12.80;99.90;14.40;96813.00;;;;5094534;28;20194;-71
2023/04/17 08:41:53;;;;;;;1.57;1.47;;;12.80;99.90;14.30;96819.00;;;;5088402;28;20223;-72
2023/04/17 08:44:43;;;;;;;2.27;1.90;;;12.80;99.90;14.80;96820.00;;;;5092264;28;20203;-70
2023/04/17 08:47:33;;;;;;;1.20;1.10;;;12.90;99.90;15.00;96823.00;;;;5090302;28;20219;-70
2023/04/17 08:50:22;;;;;;;6.33;3.23;;;13.10;99.90;14.60;96817.00;;;;5092066;28;20195;-66
2023/04/17 08:53:10;;;;;;;5.63;3.43;;;13.00;99.90;14.80;96821.00;;;;5090702;28;20198;-69
2023/04/17 08:56:05;;;;;;;6.67;3.70;;;12.90;99.90;15.00;96813.00;;;;5088008;28;20226;-68
2023/04/17 08:58:56;;;;;;;7.10;3.90;;;13.10;99.90;15.50;96815.00;;;;5093251;28;20214;-68
2023/04/17 09:02:02;;;;;;;2.73;2.43;;;13.40;99.90;15.70;96816.00;;;;5108726;28;20215;-68
2023/04/17 09:04:51;;;;;;;3.23;2.57;;;13.30;99.90;15.20;96807.00;;;;5109691;28;20201;-67
2023/04/17 09:07:43;;;;;;;3.73;2.67;;;13.30;99.90;14.50;96801.00;;;;5109332;28;20219;-71
2023/04/17 09:10:36;;;;;;;4.13;2.90;;;13.50;99.90;15.10;96808.00;;;;5110767;28;20194;-69
2023/04/17 09:13:28;;;;;;;1.77;1.60;;;13.40;99.90;14.80;96812.00;;;;5111138;28;20234;-70
2023/04/17 09:16:18;;;;;;;5.50;3.63;;;13.90;99.90;15.50;96820.00;;;;5106847;28;20228;-66
2023/04/17 09:19:08;;;;;;;3.57;2.50;;;13.80;96.70;16.00;96809.00;;;;5106419;28;20199;-68
2023/04/17 09:21:57;;;;;;;7.57;4.73;;;13.80;97.00;15.70;96799.00;;;;5105898;28;20210;-69
2023/04/17 09:24:47;;;;;;;4.30;2.90;;;14.00;96.60;16.40;96816.00;;;;5109444;28;20251;-67
2023/04/17 09:27:35;;;;;;;3.60;2.33;;;14.10;96.50;15.20;96804.00;;;;5101988;28;20279;-65
2023/04/17 09:30:26;;;;;;;16.23;7.80;;;14.20;95.30;16.40;96799.00;;;;5109271;28;20210;-67
2023/04/17 09:33:14;;;;;;;8.73;5.50;;;14.30;96.70;16.40;96815.00;;;;5110585;28;20226;-68
2023/04/17 09:36:23;;;;;;;4.60;3.63;;;14.40;96.40;16.60;96817.00;;;;5110835;28;20277;-66
2023/04/17 09:39:22;;;;;;;4.33;3.30;;;14.50;95.90;15.90;96796.00;;;;5110517;28;20243;-66
2023/04/17 09:42:11;;;;;;;4.10;3.00;;;14.50;95.60;15.80;96804.00;;;;5105916;28;20226;-67
2023/04/17 09:45:18;;;;;;;4.40;2.90;;;14.60;95.40;15.70;96799.00;;;;5107735;28;20213;-69
2023/04/17 09:48:10;;;;;;;3.97;2.10;;;14.40;95.40;16.00;96808.00;;;;5102986;28;20198;-71
2023/04/17 09:50:58;;;;;;;2.50;2.30;;;14.50;95.10;15.80;96801.00;;;;5104568;28;20244;-68
2023/04/17 09:53:48;;;;;;;2.60;2.40;;;14.40;95.30;15.70;96803.00;;;;5108357;28;20195;-66
2023/04/17 09:56:37;;;;;;;7.57;2.90;;;14.50;94.70;15.80;96800.00;;;;5107436;28;20258;-67
2023/04/17 09:59:26;;;;;;;3.23;2.90;;;14.50;94.10;16.30;96809.00;;;;5109605;28;20274;-69
2023/04/17 10:02:17;;;;;;;4.10;2.97;;;14.50;94.80;16.20;96797.00;;;;5107175;28;20306;-67
2023/04/17 10:05:08;;;;;;;2.93;2.60;;;14.60;94.40;17.00;96817.00;;;;5110056;28;20221;-67
2023/04/17 10:07:57;;;;;;;3.67;3.10;;;14.70;94.90;16.40;96793.00;;;;5104486;28;20206;-70
2023/04/17 10:10:49;;;;;;;3.50;3.20;;;14.70;94.90;16.50;96788.00;;;;5109084;28;20239;-73
2023/04/17 10:13:39;;;;;;;3.90;3.53;;;14.70;94.90;16.60;96801.00;;;;5109689;28;20195;-67
2023/04/17 10:16:36;;;;;;;5.30;3.73;;;14.80;94.30;16.70;96792.00;;;;5103682;28;20206;-66
2023/04/17 10:19:29;;;;;;;4.07;3.57;;;14.80;94.70;16.60;96791.00;;;;5097336;28;20206;-65
2023/04/17 10:22:33;;;;;;;5.77;3.60;;;14.80;94.60;16.70;96788.00;;;;5107663;28;20613;-66
2023/04/17 10:25:23;;;;;;;3.70;3.20;;;14.90;94.20;16.50;96789.00;;;;5107435;28;20499;-71
2023/04/17 10:28:13;;;;;;;6.07;4.20;;;14.90;93.60;16.40;96791.00;;;;5107220;28;20229;-67
2023/04/17 10:31:02;;;;;;;5.77;4.37;;;14.90;93.50;16.70;96799.00;;;;5109677;28;20702;-68
2023/04/17 10:33:52;;;;;;;4.40;4.03;;;14.80;94.40;16.40;96781.00;;;;5108527;28;20288;-71
2023/04/17 10:36:50;;;;;;;4.43;4.00;;;14.80;93.80;16.20;96790.00;;;;5107322;28;20191;-67
2023/04/17 10:39:59;;;;;;;5.17;4.40;;;14.80;94.10;17.00;96784.00;;;;5096271;28;20282;-67
2023/04/17 10:43:03;;;;;;;4.23;3.80;;;14.90;94.10;15.90;96780.00;;;;5105234;28;20217;-68
2023/04/17 10:45:57;;;;;;;5.40;4.60;;;14.80;93.80;16.30;96781.00;;;;5108111;28;20715;-69
2023/04/17 10:48:51;;;;;;;4.07;3.67;;;14.80;93.90;15.70;96774.00;;;;5108855;28;20207;-69
2023/04/17 10:51:41;;;;;;;4.03;3.67;;;14.60;93.90;16.10;96779.00;;;;5107291;27;20219;-71
2023/04/17 10:54:33;;;;;;;5.53;4.43;;;14.60;93.80;16.80;96780.00;;;;5102326;28;20195;-71
2023/04/17 10:58:01;;;;;;;4.17;3.77;;;14.70;94.40;16.40;96777.00;;;;5104393;28;20697;-70
2023/04/17 11:00:52;;;;;;;4.63;4.23;;;14.80;93.70;15.80;96776.00;;;;5107317;28;20194;-74
2023/04/17 11:03:42;;;;;;;4.77;4.23;;;14.70;93.10;16.10;96771.00;;;;5106188;28;20202;-71
2023/04/17 11:06:39;;;;;;;4.87;4.13;;;14.60;94.30;15.90;96772.00;;;;5108523;28;20195;-74
2023/04/17 11:09:29;;;;;;;9.93;3.90;;;14.60;93.30;16.80;96778.00;;;;5100430;28;20320;-67
2023/04/17 11:12:19;;;;;;;6.17;4.50;;;14.70;93.80;16.30;96771.00;;;;5104188;28;20219;-67
2023/04/17 11:15:09;;;;;;;5.60;4.97;;;14.80;93.70;16.60;96760.00;;;;5105730;28;20606;-65
2023/04/17 11:17:59;;;;;;;4.67;4.17;;;14.80;93.70;17.00;96761.00;;;;5104697;28;20256;-68
2023/04/17 11:20:50;;;;;;;5.43;4.87;;;15.00;93.40;16.40;96760.00;;;;5108758;28;20199;-65
2023/04/17 11:23:39;;;;;;;5.80;5.20;;;15.00;93.20;16.60;96751.00;;;;5106323;28;20191;-68
2023/04/17 11:26:28;;;;;;;4.97;4.47;;;15.10;92.30;17.10;96752.00;;;;5108542;28;20209;-65
2023/04/17 11:29:18;;;;;;;4.20;3.80;;;15.20;92.60;16.90;96749.00;;;;5106175;28;20198;-71
2023/04/17 11:32:11;;;;;;;6.20;5.03;;;15.30;92.20;17.30;96746.00;;;;5104224;28;20226;-67
2023/04/17 11:35:00;;;;;;;5.73;5.13;;;15.40;92.60;17.90;96752.00;;;;5103591;28;20202;-67
2023/04/17 11:38:12;;;;;;;6.03;5.33;;;15.60;92.50;17.50;96739.00;;;;5106988;28;20222;-72
2023/04/17 11:41:02;;;;;;;6.83;6.13;;;15.80;92.30;17.90;96742.00;;;;5097305;28;20195;-70
2023/04/17 11:43:52;;;;;;;6.43;4.83;;;15.90;91.70;18.20;96743.00;;;;5105418;28;20203;-68
2023/04/17 11:46:40;;;;;;;5.53;5.03;;;16.00;91.80;17.60;96732.00;;;;5104657;28;20198;-72
2023/04/17 11:49:31;;;;;;;5.27;4.77;;;16.10;90.60;18.40;96736.00;;;;5098531;28;20203;-68
2023/04/17 11:52:20;;;;;;;6.37;5.70;;;16.20;91.00;18.70;96701.00;;;;5103667;28;20694;-70
2023/04/17 11:55:10;;;;;;;7.80;6.50;;;16.40;91.30;18.80;96695.00;;;;5106224;28;20203;-75
2023/04/17 11:58:02;;;;;;;6.97;6.30;;;16.70;90.90;19.70;96724.00;;;;5102788;28;20225;-66
2023/04/17 12:01:05;;;;;;;9.60;5.83;;;17.20;90.50;18.80;96743.00;;;;5106598;28;20238;-75
2023/04/17 12:03:55;;;;;;;6.53;5.70;;;17.20;88.00;18.70;96745.00;;;;5108385;28;20689;-69
2023/04/17 12:06:44;;;;;;;7.73;6.40;;;17.10;88.10;17.60;96749.00;;;;5101450;28;20202;-66
2023/04/17 12:09:34;;;;;;;7.80;6.10;;;16.90;86.50;18.90;96754.00;;;;5096129;28;20199;-68
2023/04/17 12:12:24;;;;;;;7.30;5.67;;;16.90;87.40;18.60;96739.00;;;;5108240;28;20035;-67
2023/04/17 12:15:12;;;;;;;6.27;5.63;;;16.90;87.40;18.30;96725.00;;;;5105332;28;20281;-65
2023/04/17 12:18:04;;;;;;;7.57;6.77;;;17.00;85.80;20.20;96674.00;;;;5097739;28;20359;-67
2023/04/17 12:20:53;;;;;;;7.20;5.53;;;17.30;88.20;19.00;96646.00;;;;5106118;28;20190;-65
2023/04/17 12:23:42;;;;;;;6.13;5.53;;;17.70;86.40;21.10;96680.00;;;;5107705;28;20905;-66
2023/04/17 12:26:30;;;;;;;;;;;18.30;86.60;20.20;96726.00;;;;5101823;28;20194;-68
2023/04/17 12:29:20;;;;;;;6.00;5.40;;;18.50;80.40;21.10;96741.00;;;;5105198;28;21012;-74
2023/04/17 12:32:17;;;;;;;5.83;5.30;;;;;19.20;96718.00;;;;5099387;28;20223;-65
2023/04/17 12:35:09;;;;;;;7.53;6.73;;;;;19.60;96677.00;;;;5106552;28;20232;-70
2023/04/17 12:37:58;;;;;;;7.83;7.00;;;;;19.40;96732.00;;;;5101659;28;20214;-69
2023/04/17 12:40:49;;;;;;;7.13;5.43;;;;;19.60;96728.00;;;;5101509;28;20206;-63
2023/04/17 12:43:41;;;;;;;6.17;4.93;;;;;18.10;96669.00;;;;5106770;28;20212;-63